sensor_id;sensor_type;location;lat;lon;timestamp;P1;durP1;ratioP1;P2;durP2;ratioP2
78169;SDS011;67412;49.892;14.490;2023-10-19T00:01:47;9.13;;;3.30;;
78169;SDS011;67412;49.892;14.490;2023-10-19T00:04:12;9.38;;;3.28;;
78169;SDS011;67412;49.892;14.490;2023-10-19T00:06:38;8.85;;;3.28;;
78169;SDS011;67412;49.892;14.490;2023-10-19T00:11:36;10.32;;;3.78;;
78169;SDS011;67412;49.892;14.490;2023-10-19T00:14:01;12.20;;;4.07;;
78169;SDS011;67412;49.892;14.490;2023-10-19T00:16:28;11.65;;;3.97;;
78169;SDS011;67412;49.892;14.490;2023-10-19T00:19:00;13.25;;;4.20;;
78169;SDS011;67412;49.892;14.490;2023-10-19T00:21:26;8.68;;;3.25;;
78169;SDS011;67412;49.892;14.490;2023-10-19T00:23:56;11.73;;;4.15;;
78169;SDS011;67412;49.892;14.490;2023-10-19T00:26:25;8.95;;;3.60;;
78169;SDS011;67412;49.892;14.490;2023-10-19T00:28:51;10.48;;;3.50;;
78169;SDS011;67412;49.892;14.490;2023-10-19T00:31:20;11.82;;;3.97;;
78169;SDS011;67412;49.892;14.490;2023-10-19T00:33:46;11.48;;;4.28;;
78169;SDS011;67412;49.892;14.490;2023-10-19T00:36:11;10.52;;;4.03;;
78169;SDS011;67412;49.892;14.490;2023-10-19T00:38:40;12.55;;;4.45;;
78169;SDS011;67412;49.892;14.490;2023-10-19T00:41:21;9.60;;;4.13;;
78169;SDS011;67412;49.892;14.490;2023-10-19T00:43:54;11.65;;;3.72;;
78169;SDS011;67412;49.892;14.490;2023-10-19T00:46:35;10.60;;;3.88;;
78169;SDS011;67412;49.892;14.490;2023-10-19T00:49:03;10.30;;;4.18;;
78169;SDS011;67412;49.892;14.490;2023-10-19T00:54:19;10.55;;;4.90;;
78169;SDS011;67412;49.892;14.490;2023-10-19T00:56:58;11.13;;;4.78;;
78169;SDS011;67412;49.892;14.490;2023-10-19T00:59:33;12.23;;;4.88;;
78169;SDS011;67412;49.892;14.490;2023-10-19T01:02:07;11.25;;;4.50;;
78169;SDS011;67412;49.892;14.490;2023-10-19T01:04:43;11.90;;;4.28;;
78169;SDS011;67412;49.892;14.490;2023-10-19T01:07:10;11.23;;;3.95;;
78169;SDS011;67412;49.892;14.490;2023-10-19T01:10:02;11.43;;;4.03;;
78169;SDS011;67412;49.892;14.490;2023-10-19T01:12:33;9.85;;;4.05;;
78169;SDS011;67412;49.892;14.490;2023-10-19T01:17:36;10.35;;;4.30;;
78169;SDS011;67412;49.892;14.490;2023-10-19T01:20:11;10.23;;;3.75;;
78169;SDS011;67412;49.892;14.490;2023-10-19T01:25:43;10.95;;;4.30;;
78169;SDS011;67412;49.892;14.490;2023-10-19T01:28:17;10.90;;;4.05;;
78169;SDS011;67412;49.892;14.490;2023-10-19T01:30:43;15.23;;;5.95;;
78169;SDS011;67412;49.892;14.490;2023-10-19T01:33:09;13.45;;;5.35;;
78169;SDS011;67412;49.892;14.490;2023-10-19T01:35:39;11.57;;;5.00;;
78169;SDS011;67412;49.892;14.490;2023-10-19T01:38:23;12.10;;;4.88;;
78169;SDS011;67412;49.892;14.490;2023-10-19T01:40:49;12.00;;;4.70;;
78169;SDS011;67412;49.892;14.490;2023-10-19T01:43:16;13.60;;;5.00;;
78169;SDS011;67412;49.892;14.490;2023-10-19T01:45:51;10.52;;;4.43;;
78169;SDS011;67412;49.892;14.490;2023-10-19T01:48:19;12.65;;;5.03;;
78169;SDS011;67412;49.892;14.490;2023-10-19T01:50:48;12.75;;;5.30;;
78169;SDS011;67412;49.892;14.490;2023-10-19T01:53:15;10.90;;;4.55;;
78169;SDS011;67412;49.892;14.490;2023-10-19T01:58:09;12.95;;;4.50;;
78169;SDS011;67412;49.892;14.490;2023-10-19T02:00:35;12.55;;;5.00;;
78169;SDS011;67412;49.892;14.490;2023-10-19T02:03:06;13.13;;;4.80;;
78169;SDS011;67412;49.892;14.490;2023-10-19T02:05:32;14.13;;;4.80;;
78169;SDS011;67412;49.892;14.490;2023-10-19T02:08:04;10.73;;;4.55;;
78169;SDS011;67412;49.892;14.490;2023-10-19T02:10:32;11.02;;;4.75;;
78169;SDS011;67412;49.892;14.490;2023-10-19T02:12:59;13.38;;;5.03;;
78169;SDS011;67412;49.892;14.490;2023-10-19T02:15:24;12.07;;;4.65;;
78169;SDS011;67412;49.892;14.490;2023-10-19T02:17:49;12.02;;;4.68;;
78169;SDS011;67412;49.892;14.490;2023-10-19T02:20:14;12.43;;;5.47;;
78169;SDS011;67412;49.892;14.490;2023-10-19T02:22:42;10.60;;;4.95;;
78169;SDS011;67412;49.892;14.490;2023-10-19T02:25:08;12.38;;;4.88;;
78169;SDS011;67412;49.892;14.490;2023-10-19T02:27:35;11.43;;;4.63;;
78169;SDS011;67412;49.892;14.490;2023-10-19T02:30:01;11.85;;;4.78;;
78169;SDS011;67412;49.892;14.490;2023-10-19T02:32:27;10.15;;;4.32;;
78169;SDS011;67412;49.892;14.490;2023-10-19T02:34:52;10.90;;;4.10;;
78169;SDS011;67412;49.892;14.490;2023-10-19T02:37:17;9.65;;;3.75;;
78169;SDS011;67412;49.892;14.490;2023-10-19T02:39:43;12.10;;;4.40;;
78169;SDS011;67412;49.892;14.490;2023-10-19T02:42:09;12.95;;;4.63;;
78169;SDS011;67412;49.892;14.490;2023-10-19T02:44:34;11.68;;;4.30;;
78169;SDS011;67412;49.892;14.490;2023-10-19T02:46:59;12.55;;;4.40;;
78169;SDS011;67412;49.892;14.490;2023-10-19T02:49:25;11.77;;;4.53;;
78169;SDS011;67412;49.892;14.490;2023-10-19T02:51:53;11.23;;;4.43;;
78169;SDS011;67412;49.892;14.490;2023-10-19T02:54:22;13.60;;;5.15;;
78169;SDS011;67412;49.892;14.490;2023-10-19T02:56:53;13.48;;;5.25;;
78169;SDS011;67412;49.892;14.490;2023-10-19T02:59:22;13.80;;;5.55;;
78169;SDS011;67412;49.892;14.490;2023-10-19T03:01:52;17.08;;;5.85;;
78169;SDS011;67412;49.892;14.490;2023-10-19T03:04:33;17.13;;;6.60;;
78169;SDS011;67412;49.892;14.490;2023-10-19T03:07:02;15.70;;;6.47;;
78169;SDS011;67412;49.892;14.490;2023-10-19T03:09:29;15.35;;;6.55;;
78169;SDS011;67412;49.892;14.490;2023-10-19T03:11:55;19.63;;;7.32;;
78169;SDS011;67412;49.892;14.490;2023-10-19T03:14:28;20.33;;;8.70;;
78169;SDS011;67412;49.892;14.490;2023-10-19T03:16:54;15.15;;;7.50;;
78169;SDS011;67412;49.892;14.490;2023-10-19T03:19:20;17.63;;;7.65;;
78169;SDS011;67412;49.892;14.490;2023-10-19T03:21:46;18.65;;;7.28;;
78169;SDS011;67412;49.892;14.490;2023-10-19T03:24:14;17.88;;;7.82;;
78169;SDS011;67412;49.892;14.490;2023-10-19T03:26:59;19.27;;;8.05;;
78169;SDS011;67412;49.892;14.490;2023-10-19T03:29:24;17.23;;;7.03;;
78169;SDS011;67412;49.892;14.490;2023-10-19T03:31:57;16.35;;;6.93;;
78169;SDS011;67412;49.892;14.490;2023-10-19T03:34:24;17.17;;;7.43;;
78169;SDS011;67412;49.892;14.490;2023-10-19T03:36:49;17.40;;;7.15;;
78169;SDS011;67412;49.892;14.490;2023-10-19T03:39:19;20.88;;;7.60;;
78169;SDS011;67412;49.892;14.490;2023-10-19T03:41:46;18.40;;;8.18;;
78169;SDS011;67412;49.892;14.490;2023-10-19T03:44:11;17.88;;;6.78;;
78169;SDS011;67412;49.892;14.490;2023-10-19T03:46:48;18.23;;;7.38;;
78169;SDS011;67412;49.892;14.490;2023-10-19T03:49:26;16.98;;;7.03;;
78169;SDS011;67412;49.892;14.490;2023-10-19T03:51:55;17.42;;;6.85;;
78169;SDS011;67412;49.892;14.490;2023-10-19T03:54:25;18.80;;;8.00;;
78169;SDS011;67412;49.892;14.490;2023-10-19T03:56:52;21.77;;;8.45;;
78169;SDS011;67412;49.892;14.490;2023-10-19T03:59:18;22.73;;;8.90;;
78169;SDS011;67412;49.892;14.490;2023-10-19T04:01:43;21.65;;;8.88;;
78169;SDS011;67412;49.892;14.490;2023-10-19T04:04:10;21.23;;;9.25;;
78169;SDS011;67412;49.892;14.490;2023-10-19T04:06:35;20.65;;;8.40;;
78169;SDS011;67412;49.892;14.490;2023-10-19T04:09:02;21.08;;;8.90;;
78169;SDS011;67412;49.892;14.490;2023-10-19T04:11:30;22.75;;;8.90;;
78169;SDS011;67412;49.892;14.490;2023-10-19T04:14:12;19.10;;;7.60;;
78169;SDS011;67412;49.892;14.490;2023-10-19T04:16:40;18.75;;;7.70;;
78169;SDS011;67412;49.892;14.490;2023-10-19T04:19:08;18.80;;;8.13;;
78169;SDS011;67412;49.892;14.490;2023-10-19T04:21:34;19.77;;;8.18;;
78169;SDS011;67412;49.892;14.490;2023-10-19T04:24:03;15.93;;;6.60;;
78169;SDS011;67412;49.892;14.490;2023-10-19T04:26:29;15.27;;;6.72;;
78169;SDS011;67412;49.892;14.490;2023-10-19T04:29:01;18.42;;;7.32;;
78169;SDS011;67412;49.892;14.490;2023-10-19T04:31:34;18.40;;;8.30;;
78169;SDS011;67412;49.892;14.490;2023-10-19T04:34:03;16.27;;;6.55;;
78169;SDS011;67412;49.892;14.490;2023-10-19T04:36:32;17.20;;;7.82;;
78169;SDS011;67412;49.892;14.490;2023-10-19T04:38:59;18.05;;;7.57;;
78169;SDS011;67412;49.892;14.490;2023-10-19T04:41:25;18.83;;;8.05;;
78169;SDS011;67412;49.892;14.490;2023-10-19T04:43:52;20.52;;;7.80;;
78169;SDS011;67412;49.892;14.490;2023-10-19T04:46:19;17.67;;;7.85;;
78169;SDS011;67412;49.892;14.490;2023-10-19T04:48:44;16.98;;;7.53;;
78169;SDS011;67412;49.892;14.490;2023-10-19T04:51:10;18.38;;;7.03;;
78169;SDS011;67412;49.892;14.490;2023-10-19T04:53:36;15.15;;;6.82;;
78169;SDS011;67412;49.892;14.490;2023-10-19T04:56:03;16.85;;;7.03;;
78169;SDS011;67412;49.892;14.490;2023-10-19T04:58:33;15.57;;;7.15;;
78169;SDS011;67412;49.892;14.490;2023-10-19T05:01:00;16.92;;;7.40;;
78169;SDS011;67412;49.892;14.490;2023-10-19T05:03:26;17.38;;;7.53;;
78169;SDS011;67412;49.892;14.490;2023-10-19T05:05:53;15.48;;;7.10;;
78169;SDS011;67412;49.892;14.490;2023-10-19T05:08:19;16.90;;;7.63;;
78169;SDS011;67412;49.892;14.490;2023-10-19T05:10:45;18.80;;;6.85;;
78169;SDS011;67412;49.892;14.490;2023-10-19T05:13:11;16.23;;;7.43;;
78169;SDS011;67412;49.892;14.490;2023-10-19T05:15:37;17.25;;;7.43;;
78169;SDS011;67412;49.892;14.490;2023-10-19T05:18:03;19.98;;;7.55;;
78169;SDS011;67412;49.892;14.490;2023-10-19T05:20:29;18.85;;;8.45;;
78169;SDS011;67412;49.892;14.490;2023-10-19T05:22:55;21.05;;;8.90;;
78169;SDS011;67412;49.892;14.490;2023-10-19T05:25:20;19.02;;;8.98;;
78169;SDS011;67412;49.892;14.490;2023-10-19T05:27:48;20.25;;;8.00;;
78169;SDS011;67412;49.892;14.490;2023-10-19T05:30:14;21.25;;;8.23;;
78169;SDS011;67412;49.892;14.490;2023-10-19T05:32:39;18.83;;;7.90;;
78169;SDS011;67412;49.892;14.490;2023-10-19T05:35:05;17.60;;;8.13;;
78169;SDS011;67412;49.892;14.490;2023-10-19T05:37:31;16.70;;;7.50;;
78169;SDS011;67412;49.892;14.490;2023-10-19T05:39:56;15.05;;;6.97;;
78169;SDS011;67412;49.892;14.490;2023-10-19T05:42:22;17.00;;;7.47;;
78169;SDS011;67412;49.892;14.490;2023-10-19T05:44:47;16.75;;;7.22;;
78169;SDS011;67412;49.892;14.490;2023-10-19T05:47:12;15.80;;;7.35;;
78169;SDS011;67412;49.892;14.490;2023-10-19T05:49:38;19.67;;;7.93;;
78169;SDS011;67412;49.892;14.490;2023-10-19T05:52:03;17.23;;;7.30;;
78169;SDS011;67412;49.892;14.490;2023-10-19T05:54:28;20.17;;;7.78;;
78169;SDS011;67412;49.892;14.490;2023-10-19T05:56:54;17.95;;;7.70;;
78169;SDS011;67412;49.892;14.490;2023-10-19T05:59:19;16.55;;;7.63;;
78169;SDS011;67412;49.892;14.490;2023-10-19T06:01:45;16.35;;;7.88;;
78169;SDS011;67412;49.892;14.490;2023-10-19T06:04:13;16.55;;;7.88;;
78169;SDS011;67412;49.892;14.490;2023-10-19T06:06:38;18.35;;;7.60;;
78169;SDS011;67412;49.892;14.490;2023-10-19T06:09:07;17.40;;;7.70;;
78169;SDS011;67412;49.892;14.490;2023-10-19T06:11:36;18.02;;;8.23;;
78169;SDS011;67412;49.892;14.490;2023-10-19T06:14:07;16.45;;;7.75;;
78169;SDS011;67412;49.892;14.490;2023-10-19T06:16:33;18.67;;;8.32;;
78169;SDS011;67412;49.892;14.490;2023-10-19T06:18:59;19.02;;;8.85;;
78169;SDS011;67412;49.892;14.490;2023-10-19T06:21:24;19.20;;;8.77;;
78169;SDS011;67412;49.892;14.490;2023-10-19T06:23:50;18.73;;;8.32;;
78169;SDS011;67412;49.892;14.490;2023-10-19T06:26:15;18.38;;;7.82;;
78169;SDS011;67412;49.892;14.490;2023-10-19T06:28:41;19.83;;;7.57;;
78169;SDS011;67412;49.892;14.490;2023-10-19T06:31:06;20.50;;;7.90;;
78169;SDS011;67412;49.892;14.490;2023-10-19T06:33:32;20.30;;;9.10;;
78169;SDS011;67412;49.892;14.490;2023-10-19T06:36:01;18.15;;;8.07;;
78169;SDS011;67412;49.892;14.490;2023-10-19T06:38:28;19.55;;;8.55;;
78169;SDS011;67412;49.892;14.490;2023-10-19T06:40:54;22.90;;;9.13;;
78169;SDS011;67412;49.892;14.490;2023-10-19T06:43:19;21.75;;;9.98;;
78169;SDS011;67412;49.892;14.490;2023-10-19T06:45:48;16.00;;;8.68;;
78169;SDS011;67412;49.892;14.490;2023-10-19T06:48:15;19.95;;;8.80;;
78169;SDS011;67412;49.892;14.490;2023-10-19T06:50:40;18.70;;;9.00;;
78169;SDS011;67412;49.892;14.490;2023-10-19T06:53:05;19.13;;;8.05;;
78169;SDS011;67412;49.892;14.490;2023-10-19T06:55:31;21.13;;;8.80;;
78169;SDS011;67412;49.892;14.490;2023-10-19T06:57:56;21.65;;;8.38;;
78169;SDS011;67412;49.892;14.490;2023-10-19T07:00:22;16.83;;;7.55;;
78169;SDS011;67412;49.892;14.490;2023-10-19T07:02:51;16.20;;;7.88;;
78169;SDS011;67412;49.892;14.490;2023-10-19T07:05:18;16.95;;;8.10;;
78169;SDS011;67412;49.892;14.490;2023-10-19T07:07:47;20.67;;;9.20;;
78169;SDS011;67412;49.892;14.490;2023-10-19T07:10:14;18.65;;;9.07;;
78169;SDS011;67412;49.892;14.490;2023-10-19T07:12:47;21.48;;;9.93;;
78169;SDS011;67412;49.892;14.490;2023-10-19T07:15:14;18.08;;;8.73;;
78169;SDS011;67412;49.892;14.490;2023-10-19T07:17:43;18.63;;;8.77;;
78169;SDS011;67412;49.892;14.490;2023-10-19T07:20:10;22.25;;;9.73;;
78169;SDS011;67412;49.892;14.490;2023-10-19T07:22:50;19.92;;;9.00;;
78169;SDS011;67412;49.892;14.490;2023-10-19T07:25:16;21.17;;;9.48;;
78169;SDS011;67412;49.892;14.490;2023-10-19T07:27:45;17.45;;;9.18;;
78169;SDS011;67412;49.892;14.490;2023-10-19T07:30:11;20.65;;;8.23;;
78169;SDS011;67412;49.892;14.490;2023-10-19T07:32:40;21.25;;;10.52;;
78169;SDS011;67412;49.892;14.490;2023-10-19T07:35:05;20.05;;;8.55;;
78169;SDS011;67412;49.892;14.490;2023-10-19T07:37:31;19.73;;;9.02;;
78169;SDS011;67412;49.892;14.490;2023-10-19T07:39:56;18.42;;;8.65;;
78169;SDS011;67412;49.892;14.490;2023-10-19T07:42:22;20.42;;;9.13;;
78169;SDS011;67412;49.892;14.490;2023-10-19T07:44:48;20.88;;;8.98;;
78169;SDS011;67412;49.892;14.490;2023-10-19T07:47:14;20.00;;;9.70;;
78169;SDS011;67412;49.892;14.490;2023-10-19T07:49:40;21.70;;;9.63;;
78169;SDS011;67412;49.892;14.490;2023-10-19T07:52:05;19.73;;;9.25;;
78169;SDS011;67412;49.892;14.490;2023-10-19T07:54:36;19.42;;;8.60;;
78169;SDS011;67412;49.892;14.490;2023-10-19T07:57:02;18.90;;;9.55;;
78169;SDS011;67412;49.892;14.490;2023-10-19T07:59:33;23.23;;;9.75;;
78169;SDS011;67412;49.892;14.490;2023-10-19T08:02:00;21.60;;;10.05;;
78169;SDS011;67412;49.892;14.490;2023-10-19T08:04:29;21.15;;;9.25;;
78169;SDS011;67412;49.892;14.490;2023-10-19T08:06:55;20.23;;;9.05;;
78169;SDS011;67412;49.892;14.490;2023-10-19T08:09:22;20.85;;;8.98;;
78169;SDS011;67412;49.892;14.490;2023-10-19T08:11:51;20.20;;;7.80;;
78169;SDS011;67412;49.892;14.490;2023-10-19T08:14:24;18.42;;;8.23;;
78169;SDS011;67412;49.892;14.490;2023-10-19T08:16:52;22.27;;;9.05;;
78169;SDS011;67412;49.892;14.490;2023-10-19T08:19:18;20.42;;;9.32;;
78169;SDS011;67412;49.892;14.490;2023-10-19T08:21:44;18.10;;;7.65;;
78169;SDS011;67412;49.892;14.490;2023-10-19T08:24:10;20.98;;;9.52;;
78169;SDS011;67412;49.892;14.490;2023-10-19T08:26:41;19.00;;;8.82;;
78169;SDS011;67412;49.892;14.490;2023-10-19T08:29:07;17.08;;;7.72;;
78169;SDS011;67412;49.892;14.490;2023-10-19T08:31:38;18.60;;;8.10;;
78169;SDS011;67412;49.892;14.490;2023-10-19T08:34:05;19.60;;;9.48;;
78169;SDS011;67412;49.892;14.490;2023-10-19T08:36:30;20.60;;;9.20;;
78169;SDS011;67412;49.892;14.490;2023-10-19T08:38:56;22.45;;;9.82;;
78169;SDS011;67412;49.892;14.490;2023-10-19T08:41:22;21.25;;;9.52;;
78169;SDS011;67412;49.892;14.490;2023-10-19T08:43:48;21.48;;;8.40;;
78169;SDS011;67412;49.892;14.490;2023-10-19T08:48:40;19.52;;;8.77;;
78169;SDS011;67412;49.892;14.490;2023-10-19T08:51:09;20.13;;;8.30;;
78169;SDS011;67412;49.892;14.490;2023-10-19T08:53:38;17.65;;;8.07;;
78169;SDS011;67412;49.892;14.490;2023-10-19T08:56:09;19.60;;;7.85;;
78169;SDS011;67412;49.892;14.490;2023-10-19T08:58:35;16.85;;;7.65;;
78169;SDS011;67412;49.892;14.490;2023-10-19T09:01:01;17.70;;;7.85;;
78169;SDS011;67412;49.892;14.490;2023-10-19T09:03:31;17.55;;;8.25;;
78169;SDS011;67412;49.892;14.490;2023-10-19T09:06:00;16.17;;;7.40;;
78169;SDS011;67412;49.892;14.490;2023-10-19T09:08:30;18.30;;;8.38;;
78169;SDS011;67412;49.892;14.490;2023-10-19T09:11:06;18.25;;;8.07;;
78169;SDS011;67412;49.892;14.490;2023-10-19T09:13:49;19.80;;;8.82;;
78169;SDS011;67412;49.892;14.490;2023-10-19T09:16:17;16.73;;;7.57;;
78169;SDS011;67412;49.892;14.490;2023-10-19T09:18:45;16.50;;;7.82;;
78169;SDS011;67412;49.892;14.490;2023-10-19T09:21:15;18.65;;;8.75;;
78169;SDS011;67412;49.892;14.490;2023-10-19T09:23:52;20.98;;;9.10;;
78169;SDS011;67412;49.892;14.490;2023-10-19T09:26:19;16.10;;;7.65;;
78169;SDS011;67412;49.892;14.490;2023-10-19T09:28:47;19.75;;;8.77;;
78169;SDS011;67412;49.892;14.490;2023-10-19T09:31:15;17.38;;;7.97;;
78169;SDS011;67412;49.892;14.490;2023-10-19T09:33:42;19.17;;;8.52;;
78169;SDS011;67412;49.892;14.490;2023-10-19T09:36:11;18.85;;;8.52;;
78169;SDS011;67412;49.892;14.490;2023-10-19T09:38:47;20.15;;;8.90;;
78169;SDS011;67412;49.892;14.490;2023-10-19T09:41:19;18.20;;;8.95;;
78169;SDS011;67412;49.892;14.490;2023-10-19T09:43:47;18.42;;;9.82;;
78169;SDS011;67412;49.892;14.490;2023-10-19T09:46:20;19.48;;;9.07;;
78169;SDS011;67412;49.892;14.490;2023-10-19T09:48:46;17.52;;;9.10;;
78169;SDS011;67412;49.892;14.490;2023-10-19T09:51:13;19.38;;;8.93;;
78169;SDS011;67412;49.892;14.490;2023-10-19T09:53:41;16.25;;;8.40;;
78169;SDS011;67412;49.892;14.490;2023-10-19T09:56:15;18.85;;;9.23;;
78169;SDS011;67412;49.892;14.490;2023-10-19T09:58:45;18.77;;;8.77;;
78169;SDS011;67412;49.892;14.490;2023-10-19T10:01:13;17.58;;;8.55;;
78169;SDS011;67412;49.892;14.490;2023-10-19T10:06:16;19.50;;;8.60;;
78169;SDS011;67412;49.892;14.490;2023-10-19T10:08:45;16.92;;;8.80;;
78169;SDS011;67412;49.892;14.490;2023-10-19T10:13:51;21.58;;;9.75;;
78169;SDS011;67412;49.892;14.490;2023-10-19T10:16:18;18.73;;;9.02;;
78169;SDS011;67412;49.892;14.490;2023-10-19T10:18:49;19.00;;;8.88;;
78169;SDS011;67412;49.892;14.490;2023-10-19T10:21:16;18.15;;;9.95;;
78169;SDS011;67412;49.892;14.490;2023-10-19T10:23:47;18.58;;;8.85;;
78169;SDS011;67412;49.892;14.490;2023-10-19T10:26:29;20.08;;;9.55;;
78169;SDS011;67412;49.892;14.490;2023-10-19T10:29:14;18.50;;;9.30;;
78169;SDS011;67412;49.892;14.490;2023-10-19T10:31:47;20.17;;;9.13;;
78169;SDS011;67412;49.892;14.490;2023-10-19T10:37:00;22.45;;;8.45;;
78169;SDS011;67412;49.892;14.490;2023-10-19T10:39:27;18.58;;;9.25;;
78169;SDS011;67412;49.892;14.490;2023-10-19T10:41:57;18.55;;;8.75;;
78169;SDS011;67412;49.892;14.490;2023-10-19T10:44:35;21.15;;;9.35;;
78169;SDS011;67412;49.892;14.490;2023-10-19T10:47:11;16.50;;;8.43;;
78169;SDS011;67412;49.892;14.490;2023-10-19T10:52:26;18.33;;;8.57;;
78169;SDS011;67412;49.892;14.490;2023-10-19T10:54:56;19.15;;;8.05;;
78169;SDS011;67412;49.892;14.490;2023-10-19T10:57:21;20.08;;;10.02;;
78169;SDS011;67412;49.892;14.490;2023-10-19T11:00:00;19.88;;;9.20;;
78169;SDS011;67412;49.892;14.490;2023-10-19T11:02:30;18.27;;;9.00;;
78169;SDS011;67412;49.892;14.490;2023-10-19T11:04:55;16.80;;;7.93;;
78169;SDS011;67412;49.892;14.490;2023-10-19T11:07:20;17.77;;;8.80;;
78169;SDS011;67412;49.892;14.490;2023-10-19T11:09:46;18.00;;;8.65;;
78169;SDS011;67412;49.892;14.490;2023-10-19T11:12:12;17.95;;;8.70;;
78169;SDS011;67412;49.892;14.490;2023-10-19T11:15:00;18.65;;;8.70;;
78169;SDS011;67412;49.892;14.490;2023-10-19T11:17:25;18.70;;;8.85;;
78169;SDS011;67412;49.892;14.490;2023-10-19T11:19:55;19.05;;;9.40;;
78169;SDS011;67412;49.892;14.490;2023-10-19T11:22:25;17.00;;;7.78;;
78169;SDS011;67412;49.892;14.490;2023-10-19T11:24:51;18.92;;;9.40;;
78169;SDS011;67412;49.892;14.490;2023-10-19T11:27:23;19.17;;;8.82;;
78169;SDS011;67412;49.892;14.490;2023-10-19T11:32:22;17.48;;;8.68;;
78169;SDS011;67412;49.892;14.490;2023-10-19T11:34:50;18.40;;;8.60;;
78169;SDS011;67412;49.892;14.490;2023-10-19T11:37:15;18.15;;;8.32;;
78169;SDS011;67412;49.892;14.490;2023-10-19T11:39:41;18.55;;;8.73;;
78169;SDS011;67412;49.892;14.490;2023-10-19T11:42:07;16.75;;;8.43;;
78169;SDS011;67412;49.892;14.490;2023-10-19T11:44:32;19.85;;;8.68;;
78169;SDS011;67412;49.892;14.490;2023-10-19T11:46:57;19.35;;;10.00;;
78169;SDS011;67412;49.892;14.490;2023-10-19T11:49:23;17.80;;;8.50;;
78169;SDS011;67412;49.892;14.490;2023-10-19T11:51:48;17.95;;;9.15;;
78169;SDS011;67412;49.892;14.490;2023-10-19T11:54:13;17.50;;;8.23;;
78169;SDS011;67412;49.892;14.490;2023-10-19T11:56:39;20.60;;;8.85;;
78169;SDS011;67412;49.892;14.490;2023-10-19T11:59:04;17.58;;;8.50;;
78169;SDS011;67412;49.892;14.490;2023-10-19T12:01:29;20.90;;;9.63;;
78169;SDS011;67412;49.892;14.490;2023-10-19T12:03:55;17.20;;;8.77;;
78169;SDS011;67412;49.892;14.490;2023-10-19T12:06:20;17.90;;;8.68;;
78169;SDS011;67412;49.892;14.490;2023-10-19T12:08:48;15.75;;;8.38;;
78169;SDS011;67412;49.892;14.490;2023-10-19T12:11:14;20.73;;;9.73;;
78169;SDS011;67412;49.892;14.490;2023-10-19T12:13:44;21.75;;;11.05;;
78169;SDS011;67412;49.892;14.490;2023-10-19T12:16:10;19.73;;;8.82;;
78169;SDS011;67412;49.892;14.490;2023-10-19T12:18:40;16.90;;;9.15;;
78169;SDS011;67412;49.892;14.490;2023-10-19T12:23:39;16.88;;;8.18;;
78169;SDS011;67412;49.892;14.490;2023-10-19T12:26:08;17.13;;;8.30;;
78169;SDS011;67412;49.892;14.490;2023-10-19T12:28:39;16.77;;;9.02;;
78169;SDS011;67412;49.892;14.490;2023-10-19T12:31:05;16.58;;;8.55;;
78169;SDS011;67412;49.892;14.490;2023-10-19T12:33:33;18.80;;;8.88;;
78169;SDS011;67412;49.892;14.490;2023-10-19T12:36:03;16.52;;;8.48;;
78169;SDS011;67412;49.892;14.490;2023-10-19T12:38:48;17.42;;;8.68;;
78169;SDS011;67412;49.892;14.490;2023-10-19T12:41:14;19.33;;;8.82;;
78169;SDS011;67412;49.892;14.490;2023-10-19T12:43:40;19.75;;;10.05;;
78169;SDS011;67412;49.892;14.490;2023-10-19T12:46:05;18.58;;;9.88;;
78169;SDS011;67412;49.892;14.490;2023-10-19T12:48:33;19.63;;;9.30;;
78169;SDS011;67412;49.892;14.490;2023-10-19T12:51:00;17.63;;;9.20;;
78169;SDS011;67412;49.892;14.490;2023-10-19T12:53:29;21.85;;;8.80;;
78169;SDS011;67412;49.892;14.490;2023-10-19T12:55:54;19.95;;;9.55;;
78169;SDS011;67412;49.892;14.490;2023-10-19T12:58:19;22.25;;;10.80;;
78169;SDS011;67412;49.892;14.490;2023-10-19T13:00:46;20.25;;;9.25;;
78169;SDS011;67412;49.892;14.490;2023-10-19T13:03:13;17.17;;;8.43;;
78169;SDS011;67412;49.892;14.490;2023-10-19T13:05:39;16.35;;;8.50;;
78169;SDS011;67412;49.892;14.490;2023-10-19T13:08:06;18.55;;;8.85;;
78169;SDS011;67412;49.892;14.490;2023-10-19T13:10:33;19.13;;;8.60;;
78169;SDS011;67412;49.892;14.490;2023-10-19T13:13:02;34.00;;;19.50;;
78169;SDS011;67412;49.892;14.490;2023-10-19T13:15:32;21.45;;;12.32;;
78169;SDS011;67412;49.892;14.490;2023-10-19T13:18:03;18.33;;;8.25;;
78169;SDS011;67412;49.892;14.490;2023-10-19T13:20:31;16.55;;;8.57;;
78169;SDS011;67412;49.892;14.490;2023-10-19T13:23:03;20.95;;;10.30;;
78169;SDS011;67412;49.892;14.490;2023-10-19T13:25:31;18.92;;;9.65;;
78169;SDS011;67412;49.892;14.490;2023-10-19T13:28:26;17.02;;;8.40;;
78169;SDS011;67412;49.892;14.490;2023-10-19T13:30:53;15.65;;;7.70;;
78169;SDS011;67412;49.892;14.490;2023-10-19T13:33:19;20.15;;;9.10;;
78169;SDS011;67412;49.892;14.490;2023-10-19T13:35:49;17.80;;;8.98;;
78169;SDS011;67412;49.892;14.490;2023-10-19T13:38:16;20.52;;;9.38;;
78169;SDS011;67412;49.892;14.490;2023-10-19T13:40:42;17.08;;;8.57;;
78169;SDS011;67412;49.892;14.490;2023-10-19T13:43:09;20.55;;;9.88;;
78169;SDS011;67412;49.892;14.490;2023-10-19T13:45:41;20.60;;;9.23;;
78169;SDS011;67412;49.892;14.490;2023-10-19T13:48:10;19.45;;;9.57;;
78169;SDS011;67412;49.892;14.490;2023-10-19T13:50:40;17.50;;;8.88;;
78169;SDS011;67412;49.892;14.490;2023-10-19T13:53:11;20.98;;;9.48;;
78169;SDS011;67412;49.892;14.490;2023-10-19T13:55:36;17.80;;;9.13;;
78169;SDS011;67412;49.892;14.490;2023-10-19T13:58:02;17.00;;;9.23;;
78169;SDS011;67412;49.892;14.490;2023-10-19T14:00:27;19.52;;;9.93;;
78169;SDS011;67412;49.892;14.490;2023-10-19T14:03:00;20.15;;;9.38;;
78169;SDS011;67412;49.892;14.490;2023-10-19T14:05:27;18.45;;;9.40;;
78169;SDS011;67412;49.892;14.490;2023-10-19T14:10:19;16.15;;;9.02;;
78169;SDS011;67412;49.892;14.490;2023-10-19T14:12:46;18.40;;;9.30;;
78169;SDS011;67412;49.892;14.490;2023-10-19T14:15:14;19.52;;;9.20;;
78169;SDS011;67412;49.892;14.490;2023-10-19T14:17:42;22.80;;;9.93;;
78169;SDS011;67412;49.892;14.490;2023-10-19T14:20:08;20.17;;;9.68;;
78169;SDS011;67412;49.892;14.490;2023-10-19T14:25:09;23.17;;;10.45;;
78169;SDS011;67412;49.892;14.490;2023-10-19T14:27:39;18.92;;;10.45;;
78169;SDS011;67412;49.892;14.490;2023-10-19T14:30:09;24.58;;;10.43;;
78169;SDS011;67412;49.892;14.490;2023-10-19T14:32:41;24.13;;;11.10;;
78169;SDS011;67412;49.892;14.490;2023-10-19T14:35:12;22.50;;;11.25;;
78169;SDS011;67412;49.892;14.490;2023-10-19T14:37:40;21.70;;;10.68;;
78169;SDS011;67412;49.892;14.490;2023-10-19T14:40:11;22.52;;;10.68;;
78169;SDS011;67412;49.892;14.490;2023-10-19T14:42:39;22.02;;;11.00;;
78169;SDS011;67412;49.892;14.490;2023-10-19T14:45:08;25.10;;;10.93;;
78169;SDS011;67412;49.892;14.490;2023-10-19T14:47:37;23.35;;;12.07;;
78169;SDS011;67412;49.892;14.490;2023-10-19T14:50:05;23.60;;;12.20;;
78169;SDS011;67412;49.892;14.490;2023-10-19T14:52:34;24.38;;;11.70;;
78169;SDS011;67412;49.892;14.490;2023-10-19T14:54:59;20.60;;;10.30;;
78169;SDS011;67412;49.892;14.490;2023-10-19T14:57:25;22.02;;;10.98;;
78169;SDS011;67412;49.892;14.490;2023-10-19T14:59:51;23.17;;;11.15;;
78169;SDS011;67412;49.892;14.490;2023-10-19T15:02:16;21.70;;;10.60;;
78169;SDS011;67412;49.892;14.490;2023-10-19T15:04:44;22.83;;;11.35;;